sensor_id;sensor_type;location;lat;lon;timestamp;temperature;humidity
8662;DHT22;29684;47.722;9.388;2024-03-02T00:01:24;5.90;99.90
8662;DHT22;29684;47.722;9.388;2024-03-02T00:04:08;6.00;99.90
8662;DHT22;29684;47.722;9.388;2024-03-02T00:06:53;5.90;99.90
8662;DHT22;29684;47.722;9.388;2024-03-02T00:09:39;5.90;99.90
8662;DHT22;29684;47.722;9.388;2024-03-02T00:12:23;5.80;99.90
8662;DHT22;29684;47.722;9.388;2024-03-02T00:18:35;5.60;99.90
8662;DHT22;29684;47.722;9.388;2024-03-02T00:21:20;5.50;99.90
8662;DHT22;29684;47.722;9.388;2024-03-02T00:24:21;5.40;99.90
8662;DHT22;29684;47.722;9.388;2024-03-02T00:27:12;5.40;99.90
8662;DHT22;29684;47.722;9.388;2024-03-02T00:29:58;5.30;99.90
8662;DHT22;29684;47.722;9.388;2024-03-02T00:32:44;5.30;99.90
8662;DHT22;29684;47.722;9.388;2024-03-02T00:35:28;5.30;99.90
8662;DHT22;29684;47.722;9.388;2024-03-02T00:38:13;5.30;99.90
8662;DHT22;29684;47.722;9.388;2024-03-02T00:41:06;5.40;99.90
8662;DHT22;29684;47.722;9.388;2024-03-02T00:44:01;5.40;99.90
8662;DHT22;29684;47.722;9.388;2024-03-02T00:46:46;5.40;99.90
8662;DHT22;29684;47.722;9.388;2024-03-02T00:49:30;5.40;99.90
8662;DHT22;29684;47.722;9.388;2024-03-02T00:52:14;5.30;99.90
8662;DHT22;29684;47.722;9.388;2024-03-02T00:54:58;5.40;99.90
8662;DHT22;29684;47.722;9.388;2024-03-02T00:57:43;5.50;99.90
8662;DHT22;29684;47.722;9.388;2024-03-02T01:00:28;5.60;99.90
8662;DHT22;29684;47.722;9.388;2024-03-02T01:03:12;5.50;99.90
8662;DHT22;29684;47.722;9.388;2024-03-02T01:05:56;5.30;99.90
8662;DHT22;29684;47.722;9.388;2024-03-02T01:08:41;4.90;99.90
8662;DHT22;29684;47.722;9.388;2024-03-02T01:11:25;4.70;99.90
8662;DHT22;29684;47.722;9.388;2024-03-02T01:14:09;4.60;99.90
8662;DHT22;29684;47.722;9.388;2024-03-02T01:16:54;4.50;99.90
8662;DHT22;29684;47.722;9.388;2024-03-02T01:19:38;4.40;99.90
8662;DHT22;29684;47.722;9.388;2024-03-02T01:22:25;4.30;99.90
8662;DHT22;29684;47.722;9.388;2024-03-02T01:25:10;4.30;99.90
8662;DHT22;29684;47.722;9.388;2024-03-02T01:27:54;4.30;99.90
8662;DHT22;29684;47.722;9.388;2024-03-02T01:30:40;4.30;99.90
8662;DHT22;29684;47.722;9.388;2024-03-02T01:33:24;4.30;99.90
8662;DHT22;29684;47.722;9.388;2024-03-02T01:36:08;4.30;99.90
8662;DHT22;29684;47.722;9.388;2024-03-02T01:38:53;4.50;99.90
8662;DHT22;29684;47.722;9.388;2024-03-02T01:41:37;4.70;99.90
8662;DHT22;29684;47.722;9.388;2024-03-02T01:44:22;4.80;99.90
8662;DHT22;29684;47.722;9.388;2024-03-02T01:47:06;5.00;99.90
8662;DHT22;29684;47.722;9.388;2024-03-02T01:49:51;5.10;99.90
8662;DHT22;29684;47.722;9.388;2024-03-02T01:52:35;5.30;99.90
8662;DHT22;29684;47.722;9.388;2024-03-02T01:55:20;5.40;99.90
8662;DHT22;29684;47.722;9.388;2024-03-02T01:58:05;5.40;99.90
8662;DHT22;29684;47.722;9.388;2024-03-02T02:00:50;5.40;99.90
8662;DHT22;29684;47.722;9.388;2024-03-02T02:03:34;5.50;99.90
8662;DHT22;29684;47.722;9.388;2024-03-02T02:06:19;5.50;99.90
8662;DHT22;29684;47.722;9.388;2024-03-02T02:09:07;5.50;99.90
8662;DHT22;29684;47.722;9.388;2024-03-02T02:11:52;5.60;99.90
8662;DHT22;29684;47.722;9.388;2024-03-02T02:14:37;5.50;99.90
8662;DHT22;29684;47.722;9.388;2024-03-02T02:17:24;5.50;99.90
8662;DHT22;29684;47.722;9.388;2024-03-02T02:20:09;5.40;99.90
8662;DHT22;29684;47.722;9.388;2024-03-02T02:23:03;5.50;99.90
8662;DHT22;29684;47.722;9.388;2024-03-02T02:25:47;5.40;99.90
8662;DHT22;29684;47.722;9.388;2024-03-02T02:28:34;5.40;99.90
8662;DHT22;29684;47.722;9.388;2024-03-02T02:31:19;5.30;99.90
8662;DHT22;29684;47.722;9.388;2024-03-02T02:34:03;5.20;99.90
8662;DHT22;29684;47.722;9.388;2024-03-02T02:36:47;5.30;99.90
8662;DHT22;29684;47.722;9.388;2024-03-02T02:39:31;5.30;99.90
8662;DHT22;29684;47.722;9.388;2024-03-02T02:42:15;5.20;99.90
8662;DHT22;29684;47.722;9.388;2024-03-02T02:44:59;5.20;99.90
8662;DHT22;29684;47.722;9.388;2024-03-02T02:47:44;5.10;99.90
8662;DHT22;29684;47.722;9.388;2024-03-02T02:50:29;4.90;99.90
8662;DHT22;29684;47.722;9.388;2024-03-02T02:53:13;4.70;99.90
8662;DHT22;29684;47.722;9.388;2024-03-02T02:55:57;4.50;99.90
8662;DHT22;29684;47.722;9.388;2024-03-02T02:58:41;4.30;99.90
8662;DHT22;29684;47.722;9.388;2024-03-02T03:01:28;4.20;99.90
8662;DHT22;29684;47.722;9.388;2024-03-02T03:04:12;4.20;99.90
8662;DHT22;29684;47.722;9.388;2024-03-02T03:06:56;4.10;99.90
8662;DHT22;29684;47.722;9.388;2024-03-02T03:09:40;4.30;99.90
8662;DHT22;29684;47.722;9.388;2024-03-02T03:12:26;4.20;99.90
8662;DHT22;29684;47.722;9.388;2024-03-02T03:15:10;4.30;99.90
8662;DHT22;29684;47.722;9.388;2024-03-02T03:17:58;4.40;99.90
8662;DHT22;29684;47.722;9.388;2024-03-02T03:20:42;4.10;99.90
8662;DHT22;29684;47.722;9.388;2024-03-02T03:23:27;4.10;99.90
8662;DHT22;29684;47.722;9.388;2024-03-02T03:26:11;4.00;99.90
8662;DHT22;29684;47.722;9.388;2024-03-02T03:28:55;4.00;99.90
8662;DHT22;29684;47.722;9.388;2024-03-02T03:31:40;4.00;99.90
8662;DHT22;29684;47.722;9.388;2024-03-02T03:34:24;4.10;99.90
8662;DHT22;29684;47.722;9.388;2024-03-02T03:37:08;4.00;99.90
8662;DHT22;29684;47.722;9.388;2024-03-02T03:39:53;3.90;99.90
8662;DHT22;29684;47.722;9.388;2024-03-02T03:42:38;3.80;99.90
8662;DHT22;29684;47.722;9.388;2024-03-02T03:45:22;3.90;99.90
8662;DHT22;29684;47.722;9.388;2024-03-02T03:48:09;3.80;99.90
8662;DHT22;29684;47.722;9.388;2024-03-02T03:50:53;3.90;99.90
8662;DHT22;29684;47.722;9.388;2024-03-02T03:53:37;4.00;99.90
8662;DHT22;29684;47.722;9.388;2024-03-02T03:56:21;3.70;99.90
8662;DHT22;29684;47.722;9.388;2024-03-02T03:59:05;3.50;99.90
8662;DHT22;29684;47.722;9.388;2024-03-02T04:01:50;3.30;99.90
8662;DHT22;29684;47.722;9.388;2024-03-02T04:04:35;3.30;99.90
8662;DHT22;29684;47.722;9.388;2024-03-02T04:07:19;3.40;99.90
8662;DHT22;29684;47.722;9.388;2024-03-02T04:10:03;3.50;99.90
8662;DHT22;29684;47.722;9.388;2024-03-02T04:12:49;3.50;99.90
8662;DHT22;29684;47.722;9.388;2024-03-02T04:15:34;3.50;99.90
8662;DHT22;29684;47.722;9.388;2024-03-02T04:18:18;3.60;99.90
8662;DHT22;29684;47.722;9.388;2024-03-02T04:21:02;3.70;99.90
8662;DHT22;29684;47.722;9.388;2024-03-02T04:23:47;3.80;99.90
8662;DHT22;29684;47.722;9.388;2024-03-02T04:26:32;5.40;99.90
8662;DHT22;29684;47.722;9.388;2024-03-02T04:29:16;4.00;99.90
8662;DHT22;29684;47.722;9.388;2024-03-02T04:32:00;4.10;99.90
8662;DHT22;29684;47.722;9.388;2024-03-02T04:34:44;4.10;99.90
8662;DHT22;29684;47.722;9.388;2024-03-02T04:37:28;4.20;99.90
8662;DHT22;29684;47.722;9.388;2024-03-02T04:40:12;4.30;99.90
8662;DHT22;29684;47.722;9.388;2024-03-02T04:42:57;4.40;99.90
8662;DHT22;29684;47.722;9.388;2024-03-02T04:45:43;5.00;99.90
8662;DHT22;29684;47.722;9.388;2024-03-02T04:48:27;4.40;99.90
8662;DHT22;29684;47.722;9.388;2024-03-02T04:51:12;4.40;99.90
8662;DHT22;29684;47.722;9.388;2024-03-02T04:53:57;4.40;99.90
8662;DHT22;29684;47.722;9.388;2024-03-02T04:56:41;4.50;99.90
8662;DHT22;29684;47.722;9.388;2024-03-02T04:59:28;4.50;99.90
8662;DHT22;29684;47.722;9.388;2024-03-02T05:02:13;4.60;99.90
8662;DHT22;29684;47.722;9.388;2024-03-02T05:04:58;4.60;99.90
8662;DHT22;29684;47.722;9.388;2024-03-02T05:07:45;4.70;99.90
8662;DHT22;29684;47.722;9.388;2024-03-02T05:10:29;4.80;99.90
8662;DHT22;29684;47.722;9.388;2024-03-02T05:13:13;4.80;99.90
8662;DHT22;29684;47.722;9.388;2024-03-02T05:15:57;4.80;99.90
8662;DHT22;29684;47.722;9.388;2024-03-02T05:18:41;4.90;99.90
8662;DHT22;29684;47.722;9.388;2024-03-02T05:21:25;4.90;99.90
8662;DHT22;29684;47.722;9.388;2024-03-02T05:24:09;5.10;99.90
8662;DHT22;29684;47.722;9.388;2024-03-02T05:26:53;5.50;99.90
8662;DHT22;29684;47.722;9.388;2024-03-02T05:29:38;5.00;99.90
8662;DHT22;29684;47.722;9.388;2024-03-02T05:32:22;5.10;99.90
8662;DHT22;29684;47.722;9.388;2024-03-02T05:35:06;5.10;99.90
8662;DHT22;29684;47.722;9.388;2024-03-02T05:37:52;5.10;99.90
8662;DHT22;29684;47.722;9.388;2024-03-02T05:40:36;5.10;99.90
8662;DHT22;29684;47.722;9.388;2024-03-02T05:43:20;5.10;99.90
8662;DHT22;29684;47.722;9.388;2024-03-02T05:46:04;5.10;99.90
8662;DHT22;29684;47.722;9.388;2024-03-02T05:48:48;5.10;99.90
8662;DHT22;29684;47.722;9.388;2024-03-02T05:51:32;5.10;99.90
8662;DHT22;29684;47.722;9.388;2024-03-02T05:54:19;5.10;99.90
8662;DHT22;29684;47.722;9.388;2024-03-02T05:57:03;5.00;99.90
8662;DHT22;29684;47.722;9.388;2024-03-02T06:00:00;5.10;99.90
8662;DHT22;29684;47.722;9.388;2024-03-02T06:02:45;5.00;99.90
8662;DHT22;29684;47.722;9.388;2024-03-02T06:05:29;5.00;99.90
8662;DHT22;29684;47.722;9.388;2024-03-02T06:08:13;4.90;99.90
8662;DHT22;29684;47.722;9.388;2024-03-02T06:10:57;5.00;99.90
8662;DHT22;29684;47.722;9.388;2024-03-02T06:13:42;5.00;99.90
8662;DHT22;29684;47.722;9.388;2024-03-02T06:16:26;5.00;99.90
8662;DHT22;29684;47.722;9.388;2024-03-02T06:19:10;5.00;99.90
8662;DHT22;29684;47.722;9.388;2024-03-02T06:21:54;6.10;99.90
8662;DHT22;29684;47.722;9.388;2024-03-02T06:24:38;5.00;99.90
8662;DHT22;29684;47.722;9.388;2024-03-02T06:27:22;5.00;99.90
8662;DHT22;29684;47.722;9.388;2024-03-02T06:30:06;4.90;99.90
8662;DHT22;29684;47.722;9.388;2024-03-02T06:32:51;5.00;99.90
8662;DHT22;29684;47.722;9.388;2024-03-02T06:35:36;5.10;99.90
8662;DHT22;29684;47.722;9.388;2024-03-02T06:38:20;5.10;99.90
8662;DHT22;29684;47.722;9.388;2024-03-02T06:41:04;5.20;99.90
8662;DHT22;29684;47.722;9.388;2024-03-02T06:43:48;5.20;99.90
8662;DHT22;29684;47.722;9.388;2024-03-02T06:46:33;5.20;99.90
8662;DHT22;29684;47.722;9.388;2024-03-02T06:49:17;5.20;99.90
8662;DHT22;29684;47.722;9.388;2024-03-02T06:52:02;5.30;99.90
8662;DHT22;29684;47.722;9.388;2024-03-02T06:54:46;5.30;99.90
8662;DHT22;29684;47.722;9.388;2024-03-02T06:57:30;5.40;99.90
8662;DHT22;29684;47.722;9.388;2024-03-02T07:00:15;5.40;99.90
8662;DHT22;29684;47.722;9.388;2024-03-02T07:03:02;5.40;99.90
8662;DHT22;29684;47.722;9.388;2024-03-02T07:05:46;5.50;99.90
8662;DHT22;29684;47.722;9.388;2024-03-02T07:08:32;5.50;99.90
8662;DHT22;29684;47.722;9.388;2024-03-02T07:11:16;5.60;99.90
8662;DHT22;29684;47.722;9.388;2024-03-02T07:14:00;5.60;99.90
8662;DHT22;29684;47.722;9.388;2024-03-02T07:16:45;5.70;99.90
8662;DHT22;29684;47.722;9.388;2024-03-02T07:19:29;5.70;99.90
8662;DHT22;29684;47.722;9.388;2024-03-02T07:22:13;5.60;99.90
8662;DHT22;29684;47.722;9.388;2024-03-02T07:24:57;5.70;99.90
8662;DHT22;29684;47.722;9.388;2024-03-02T07:27:41;5.80;99.90
8662;DHT22;29684;47.722;9.388;2024-03-02T07:30:27;5.90;99.90
8662;DHT22;29684;47.722;9.388;2024-03-02T07:33:11;6.00;99.90
8662;DHT22;29684;47.722;9.388;2024-03-02T07:35:56;5.90;99.90
8662;DHT22;29684;47.722;9.388;2024-03-02T07:38:41;5.80;99.90
8662;DHT22;29684;47.722;9.388;2024-03-02T07:41:29;5.80;99.90
8662;DHT22;29684;47.722;9.388;2024-03-02T07:44:13;5.90;99.90
8662;DHT22;29684;47.722;9.388;2024-03-02T07:46:58;5.90;99.90
8662;DHT22;29684;47.722;9.388;2024-03-02T07:49:44;6.00;99.90
8662;DHT22;29684;47.722;9.388;2024-03-02T07:52:29;5.90;99.90
8662;DHT22;29684;47.722;9.388;2024-03-02T07:55:13;5.70;99.90
8662;DHT22;29684;47.722;9.388;2024-03-02T07:57:57;5.80;99.90
8662;DHT22;29684;47.722;9.388;2024-03-02T08:00:41;5.80;99.90
8662;DHT22;29684;47.722;9.388;2024-03-02T08:03:26;5.90;99.90
8662;DHT22;29684;47.722;9.388;2024-03-02T08:06:10;5.90;99.90
8662;DHT22;29684;47.722;9.388;2024-03-02T08:08:57;5.90;99.90
8662;DHT22;29684;47.722;9.388;2024-03-02T08:11:42;5.80;99.90
8662;DHT22;29684;47.722;9.388;2024-03-02T08:14:26;5.70;99.90
8662;DHT22;29684;47.722;9.388;2024-03-02T08:17:10;5.80;99.90
8662;DHT22;29684;47.722;9.388;2024-03-02T08:19:55;5.80;99.90
8662;DHT22;29684;47.722;9.388;2024-03-02T08:22:40;6.00;99.90
8662;DHT22;29684;47.722;9.388;2024-03-02T08:25:24;6.00;99.90
8662;DHT22;29684;47.722;9.388;2024-03-02T08:28:08;6.10;99.90
8662;DHT22;29684;47.722;9.388;2024-03-02T08:30:53;6.30;99.90
8662;DHT22;29684;47.722;9.388;2024-03-02T08:33:37;6.40;99.90
8662;DHT22;29684;47.722;9.388;2024-03-02T08:36:21;6.60;99.90
8662;DHT22;29684;47.722;9.388;2024-03-02T08:39:05;6.70;99.90
8662;DHT22;29684;47.722;9.388;2024-03-02T08:41:58;6.80;99.90
8662;DHT22;29684;47.722;9.388;2024-03-02T08:44:43;6.90;99.90
8662;DHT22;29684;47.722;9.388;2024-03-02T08:47:27;7.20;99.90
8662;DHT22;29684;47.722;9.388;2024-03-02T08:50:12;7.30;99.90
8662;DHT22;29684;47.722;9.388;2024-03-02T08:52:56;7.50;99.90
8662;DHT22;29684;47.722;9.388;2024-03-02T08:55:40;7.50;99.90
8662;DHT22;29684;47.722;9.388;2024-03-02T08:58:25;7.50;99.90
8662;DHT22;29684;47.722;9.388;2024-03-02T09:01:10;7.40;99.90
8662;DHT22;29684;47.722;9.388;2024-03-02T09:03:54;7.50;99.90
8662;DHT22;29684;47.722;9.388;2024-03-02T09:06:38;7.20;99.90
8662;DHT22;29684;47.722;9.388;2024-03-02T09:09:22;7.30;99.90
8662;DHT22;29684;47.722;9.388;2024-03-02T09:12:07;7.40;99.90
8662;DHT22;29684;47.722;9.388;2024-03-02T09:14:51;7.40;99.90
8662;DHT22;29684;47.722;9.388;2024-03-02T09:17:35;7.30;99.90
8662;DHT22;29684;47.722;9.388;2024-03-02T09:20:19;7.20;99.90
8662;DHT22;29684;47.722;9.388;2024-03-02T09:23:04;7.40;99.90
8662;DHT22;29684;47.722;9.388;2024-03-02T09:25:48;7.50;99.90
8662;DHT22;29684;47.722;9.388;2024-03-02T09:28:33;7.40;99.90
8662;DHT22;29684;47.722;9.388;2024-03-02T09:31:17;7.50;99.90
8662;DHT22;29684;47.722;9.388;2024-03-02T09:34:01;7.50;99.90
8662;DHT22;29684;47.722;9.388;2024-03-02T09:36:45;7.50;99.90
8662;DHT22;29684;47.722;9.388;2024-03-02T09:39:29;7.70;99.90
8662;DHT22;29684;47.722;9.388;2024-03-02T09:42:14;8.00;99.90
8662;DHT22;29684;47.722;9.388;2024-03-02T09:44:58;8.20;99.90
8662;DHT22;29684;47.722;9.388;2024-03-02T09:47:44;8.30;99.90
8662;DHT22;29684;47.722;9.388;2024-03-02T09:50:29;8.60;99.90
8662;DHT22;29684;47.722;9.388;2024-03-02T09:53:14;8.80;99.90
8662;DHT22;29684;47.722;9.388;2024-03-02T09:56:01;9.00;99.90
8662;DHT22;29684;47.722;9.388;2024-03-02T09:58:46;9.10;99.90
8662;DHT22;29684;47.722;9.388;2024-03-02T10:01:31;9.40;99.90
8662;DHT22;29684;47.722;9.388;2024-03-02T10:04:15;9.70;99.90
8662;DHT22;29684;47.722;9.388;2024-03-02T10:07:17;9.90;99.90
8662;DHT22;29684;47.722;9.388;2024-03-02T10:10:15;10.10;99.90
8662;DHT22;29684;47.722;9.388;2024-03-02T10:13:04;10.30;99.90
8662;DHT22;29684;47.722;9.388;2024-03-02T10:15:49;10.50;99.90
8662;DHT22;29684;47.722;9.388;2024-03-02T10:18:33;10.50;99.90
8662;DHT22;29684;47.722;9.388;2024-03-02T10:21:17;10.70;99.90
8662;DHT22;29684;47.722;9.388;2024-03-02T10:24:08;11.00;99.90
8662;DHT22;29684;47.722;9.388;2024-03-02T10:26:52;11.20;99.90
8662;DHT22;29684;47.722;9.388;2024-03-02T10:29:38;11.30;99.90
8662;DHT22;29684;47.722;9.388;2024-03-02T10:32:23;11.60;99.90
8662;DHT22;29684;47.722;9.388;2024-03-02T10:35:08;11.90;99.90
8662;DHT22;29684;47.722;9.388;2024-03-02T10:37:53;11.90;99.90
8662;DHT22;29684;47.722;9.388;2024-03-02T10:43:22;12.30;99.90
8662;DHT22;29684;47.722;9.388;2024-03-02T10:46:06;12.50;99.90
8662;DHT22;29684;47.722;9.388;2024-03-02T10:48:50;12.50;99.90
8662;DHT22;29684;47.722;9.388;2024-03-02T10:51:34;12.60;99.90
8662;DHT22;29684;47.722;9.388;2024-03-02T10:54:20;12.50;99.90
8662;DHT22;29684;47.722;9.388;2024-03-02T10:57:11;11.60;99.90
8662;DHT22;29684;47.722;9.388;2024-03-02T11:00:03;12.20;99.90
8662;DHT22;29684;47.722;9.388;2024-03-02T11:02:51;12.20;99.90
8662;DHT22;29684;47.722;9.388;2024-03-02T11:05:41;12.50;99.90
8662;DHT22;29684;47.722;9.388;2024-03-02T11:08:28;12.60;99.90
8662;DHT22;29684;47.722;9.388;2024-03-02T11:11:19;12.50;99.90
8662;DHT22;29684;47.722;9.388;2024-03-02T11:14:07;12.70;99.90
8662;DHT22;29684;47.722;9.388;2024-03-02T11:16:54;12.10;99.90
8662;DHT22;29684;47.722;9.388;2024-03-02T11:19:39;12.40;99.90
8662;DHT22;29684;47.722;9.388;2024-03-02T11:22:24;12.90;99.90
8662;DHT22;29684;47.722;9.388;2024-03-02T11:25:42;13.50;99.90
8662;DHT22;29684;47.722;9.388;2024-03-02T11:28:35;13.90;99.90
8662;DHT22;29684;47.722;9.388;2024-03-02T11:31:21;14.50;99.90
8662;DHT22;29684;47.722;9.388;2024-03-02T11:34:28;14.80;99.90
8662;DHT22;29684;47.722;9.388;2024-03-02T11:37:13;14.80;99.90
8662;DHT22;29684;47.722;9.388;2024-03-02T11:39:58;15.00;99.90
8662;DHT22;29684;47.722;9.388;2024-03-02T11:42:46;15.20;99.90
8662;DHT22;29684;47.722;9.388;2024-03-02T11:45:30;15.30;99.90
8662;DHT22;29684;47.722;9.388;2024-03-02T11:48:15;15.70;99.90
8662;DHT22;29684;47.722;9.388;2024-03-02T11:51:00;16.10;99.90
8662;DHT22;29684;47.722;9.388;2024-03-02T11:53:45;15.70;99.90
8662;DHT22;29684;47.722;9.388;2024-03-02T11:56:31;15.00;99.90
8662;DHT22;29684;47.722;9.388;2024-03-02T11:59:16;15.10;99.90
8662;DHT22;29684;47.722;9.388;2024-03-02T12:02:01;15.40;99.90
8662;DHT22;29684;47.722;9.388;2024-03-02T12:04:47;15.90;99.90
8662;DHT22;29684;47.722;9.388;2024-03-02T12:07:32;16.50;99.90
8662;DHT22;29684;47.722;9.388;2024-03-02T12:10:16;16.60;99.90
8662;DHT22;29684;47.722;9.388;2024-03-02T12:13:02;17.40;99.90
8662;DHT22;29684;47.722;9.388;2024-03-02T12:15:47;18.30;99.90
8662;DHT22;29684;47.722;9.388;2024-03-02T12:18:31;18.30;99.90
8662;DHT22;29684;47.722;9.388;2024-03-02T12:21:15;18.70;99.90
8662;DHT22;29684;47.722;9.388;2024-03-02T12:24:01;18.70;99.90
8662;DHT22;29684;47.722;9.388;2024-03-02T12:26:46;18.80;99.90
8662;DHT22;29684;47.722;9.388;2024-03-02T12:29:32;19.10;99.90
8662;DHT22;29684;47.722;9.388;2024-03-02T12:32:18;19.30;99.90
8662;DHT22;29684;47.722;9.388;2024-03-02T12:35:04;19.30;99.90
8662;DHT22;29684;47.722;9.388;2024-03-02T12:37:49;18.90;99.90
8662;DHT22;29684;47.722;9.388;2024-03-02T12:40:33;18.40;99.90
8662;DHT22;29684;47.722;9.388;2024-03-02T12:43:18;18.40;99.90
8662;DHT22;29684;47.722;9.388;2024-03-02T12:46:03;18.10;99.90
8662;DHT22;29684;47.722;9.388;2024-03-02T12:48:50;17.80;99.90
8662;DHT22;29684;47.722;9.388;2024-03-02T12:51:35;17.60;99.90
8662;DHT22;29684;47.722;9.388;2024-03-02T12:54:22;18.40;99.90
8662;DHT22;29684;47.722;9.388;2024-03-02T12:57:06;18.80;99.90
8662;DHT22;29684;47.722;9.388;2024-03-02T12:59:51;18.30;99.90
8662;DHT22;29684;47.722;9.388;2024-03-02T13:02:36;17.80;99.90
8662;DHT22;29684;47.722;9.388;2024-03-02T13:05:23;17.60;99.90
8662;DHT22;29684;47.722;9.388;2024-03-02T13:08:10;17.40;99.90
8662;DHT22;29684;47.722;9.388;2024-03-02T13:10:54;17.10;99.90
8662;DHT22;29684;47.722;9.388;2024-03-02T13:13:40;16.20;99.90
8662;DHT22;29684;47.722;9.388;2024-03-02T13:16:27;16.20;99.90
8662;DHT22;29684;47.722;9.388;2024-03-02T13:19:12;16.10;99.90
8662;DHT22;29684;47.722;9.388;2024-03-02T13:21:56;16.00;99.90
8662;DHT22;29684;47.722;9.388;2024-03-02T13:24:41;15.50;99.90
8662;DHT22;29684;47.722;9.388;2024-03-02T13:27:26;16.20;99.90
8662;DHT22;29684;47.722;9.388;2024-03-02T13:30:10;16.80;99.90
8662;DHT22;29684;47.722;9.388;2024-03-02T13:32:55;17.00;99.90
8662;DHT22;29684;47.722;9.388;2024-03-02T13:35:39;16.30;99.90
8662;DHT22;29684;47.722;9.388;2024-03-02T13:38:23;16.60;99.90
8662;DHT22;29684;47.722;9.388;2024-03-02T13:41:07;16.90;99.90
8662;DHT22;29684;47.722;9.388;2024-03-02T13:43:51;16.80;99.90
8662;DHT22;29684;47.722;9.388;2024-03-02T13:46:35;17.40;99.90
8662;DHT22;29684;47.722;9.388;2024-03-02T13:49:19;18.60;99.90
8662;DHT22;29684;47.722;9.388;2024-03-02T13:52:04;19.00;99.90
8662;DHT22;29684;47.722;9.388;2024-03-02T13:54:54;20.60;99.90
8662;DHT22;29684;47.722;9.388;2024-03-02T14:00:23;20.20;99.90
8662;DHT22;29684;47.722;9.388;2024-03-02T14:03:07;21.20;99.90
8662;DHT22;29684;47.722;9.388;2024-03-02T14:05:51;21.20;99.90
8662;DHT22;29684;47.722;9.388;2024-03-02T14:08:36;21.20;99.00
8662;DHT22;29684;47.722;9.388;2024-03-02T14:11:21;21.30;97.30
8662;DHT22;29684;47.722;9.388;2024-03-02T14:14:05;20.40;97.70
8662;DHT22;29684;47.722;9.388;2024-03-02T14:16:49;19.10;98.50
8662;DHT22;29684;47.722;9.388;2024-03-02T14:19:34;19.80;98.90
8662;DHT22;29684;47.722;9.388;2024-03-02T14:22:20;20.20;97.80
8662;DHT22;29684;47.722;9.388;2024-03-02T14:25:05;19.70;98.10
8662;DHT22;29684;47.722;9.388;2024-03-02T14:27:49;20.10;99.00
8662;DHT22;29684;47.722;9.388;2024-03-02T14:30:33;20.00;98.60
8662;DHT22;29684;47.722;9.388;2024-03-02T14:33:17;19.80;99.00
8662;DHT22;29684;47.722;9.388;2024-03-02T14:36:02;20.20;99.50
8662;DHT22;29684;47.722;9.388;2024-03-02T14:38:48;20.60;98.90
8662;DHT22;29684;47.722;9.388;2024-03-02T14:41:33;20.00;99.90
8662;DHT22;29684;47.722;9.388;2024-03-02T14:44:17;20.30;99.90
8662;DHT22;29684;47.722;9.388;2024-03-02T14:47:02;20.30;99.90
8662;DHT22;29684;47.722;9.388;2024-03-02T14:49:48;20.90;99.90
8662;DHT22;29684;47.722;9.388;2024-03-02T14:52:32;21.10;99.90
8662;DHT22;29684;47.722;9.388;2024-03-02T14:55:17;20.90;99.90
8662;DHT22;29684;47.722;9.388;2024-03-02T14:58:01;20.00;99.90
8662;DHT22;29684;47.722;9.388;2024-03-02T15:00:45;18.80;99.90
8662;DHT22;29684;47.722;9.388;2024-03-02T15:03:29;18.80;99.90
8662;DHT22;29684;47.722;9.388;2024-03-02T15:06:14;18.80;99.90
8662;DHT22;29684;47.722;9.388;2024-03-02T15:09:01;18.50;99.90
8662;DHT22;29684;47.722;9.388;2024-03-02T15:11:45;18.00;99.90
8662;DHT22;29684;47.722;9.388;2024-03-02T15:14:30;17.70;99.90
8662;DHT22;29684;47.722;9.388;2024-03-02T15:17:15;17.70;99.90
8662;DHT22;29684;47.722;9.388;2024-03-02T15:20:00;17.50;99.90
8662;DHT22;29684;47.722;9.388;2024-03-02T15:22:44;16.80;99.90
8662;DHT22;29684;47.722;9.388;2024-03-02T15:25:28;16.70;99.90
8662;DHT22;29684;47.722;9.388;2024-03-02T15:28:12;16.60;99.90
8662;DHT22;29684;47.722;9.388;2024-03-02T15:30:56;16.50;99.90
8662;DHT22;29684;47.722;9.388;2024-03-02T15:33:40;16.10;99.90
8662;DHT22;29684;47.722;9.388;2024-03-02T15:36:24;16.00;99.90
8662;DHT22;29684;47.722;9.388;2024-03-02T15:39:08;15.70;99.90
8662;DHT22;29684;47.722;9.388;2024-03-02T15:41:52;15.10;99.90
8662;DHT22;29684;47.722;9.388;2024-03-02T15:44:36;14.80;99.90
8662;DHT22;29684;47.722;9.388;2024-03-02T15:47:21;14.80;99.90
8662;DHT22;29684;47.722;9.388;2024-03-02T15:50:05;14.60;99.90
8662;DHT22;29684;47.722;9.388;2024-03-02T15:52:51;14.40;99.90
8662;DHT22;29684;47.722;9.388;2024-03-02T15:55:36;14.20;99.90
8662;DHT22;29684;47.722;9.388;2024-03-02T15:58:20;14.20;99.90
8662;DHT22;29684;47.722;9.388;2024-03-02T16:01:04;14.10;99.90
8662;DHT22;29684;47.722;9.388;2024-03-02T16:03:48;14.00;99.90
8662;DHT22;29684;47.722;9.388;2024-03-02T16:06:33;13.90;99.90
8662;DHT22;29684;47.722;9.388;2024-03-02T16:09:17;13.90;99.90
8662;DHT22;29684;47.722;9.388;2024-03-02T16:12:01;13.70;99.90
8662;DHT22;29684;47.722;9.388;2024-03-02T16:14:45;13.50;99.90
8662;DHT22;29684;47.722;9.388;2024-03-02T16:17:29;13.40;99.90
8662;DHT22;29684;47.722;9.388;2024-03-02T16:20:13;13.30;99.90
8662;DHT22;29684;47.722;9.388;2024-03-02T16:22:58;13.20;99.90
8662;DHT22;29684;47.722;9.388;2024-03-02T16:25:42;13.20;99.90
8662;DHT22;29684;47.722;9.388;2024-03-02T16:28:26;13.00;99.90
8662;DHT22;29684;47.722;9.388;2024-03-02T16:31:10;13.00;99.90
8662;DHT22;29684;47.722;9.388;2024-03-02T16:33:55;12.90;99.90
8662;DHT22;29684;47.722;9.388;2024-03-02T16:36:39;12.90;99.90
8662;DHT22;29684;47.722;9.388;2024-03-02T16:39:24;12.70;99.90
8662;DHT22;29684;47.722;9.388;2024-03-02T16:42:08;12.70;99.90
8662;DHT22;29684;47.722;9.388;2024-03-02T16:44:52;12.60;99.90
8662;DHT22;29684;47.722;9.388;2024-03-02T16:47:42;12.50;99.90
8662;DHT22;29684;47.722;9.388;2024-03-02T16:50:26;12.50;99.90
8662;DHT22;29684;47.722;9.388;2024-03-02T16:53:10;12.50;99.90
8662;DHT22;29684;47.722;9.388;2024-03-02T16:55:59;12.40;99.90
8662;DHT22;29684;47.722;9.388;2024-03-02T16:58:43;12.40;99.90
8662;DHT22;29684;47.722;9.388;2024-03-02T17:01:27;12.40;99.90
8662;DHT22;29684;47.722;9.388;2024-03-02T17:04:11;12.40;99.90
8662;DHT22;29684;47.722;9.388;2024-03-02T17:06:55;12.30;99.90
8662;DHT22;29684;47.722;9.388;2024-03-02T17:09:39;12.30;99.90
8662;DHT22;29684;47.722;9.388;2024-03-02T17:12:25;12.30;99.90
8662;DHT22;29684;47.722;9.388;2024-03-02T17:15:09;12.20;99.90
8662;DHT22;29684;47.722;9.388;2024-03-02T17:17:54;12.20;99.90
8662;DHT22;29684;47.722;9.388;2024-03-02T17:20:38;12.10;99.90
8662;DHT22;29684;47.722;9.388;2024-03-02T17:23:22;12.00;99.90
8662;DHT22;29684;47.722;9.388;2024-03-02T17:26:06;12.00;99.90
8662;DHT22;29684;47.722;9.388;2024-03-02T17:28:50;12.00;99.90
8662;DHT22;29684;47.722;9.388;2024-03-02T17:31:34;12.00;99.90
8662;DHT22;29684;47.722;9.388;2024-03-02T17:34:19;12.00;99.90
8662;DHT22;29684;47.722;9.388;2024-03-02T17:37:03;12.00;99.90
8662;DHT22;29684;47.722;9.388;2024-03-02T17:39:47;11.90;99.90
8662;DHT22;29684;47.722;9.388;2024-03-02T17:42:31;11.90;99.90
8662;DHT22;29684;47.722;9.388;2024-03-02T17:45:16;11.80;99.90
8662;DHT22;29684;47.722;9.388;2024-03-02T17:48:00;11.90;99.90
8662;DHT22;29684;47.722;9.388;2024-03-02T17:50:44;11.90;99.90
8662;DHT22;29684;47.722;9.388;2024-03-02T17:53:28;11.90;99.90
8662;DHT22;29684;47.722;9.388;2024-03-02T17:56:13;11.90;99.90
8662;DHT22;29684;47.722;9.388;2024-03-02T17:58:57;11.80;99.90